createdAt,value
2022-10-10T00:03:26.248Z,9.45
2022-10-10T00:08:33.685Z,9.45
2022-10-10T00:13:40.029Z,9.52
2022-10-10T00:18:45.992Z,9.28
2022-10-10T00:23:53.618Z,9.34
2022-10-10T00:28:58.721Z,9.31
2022-10-10T00:34:03.584Z,9.18
2022-10-10T00:39:10.968Z,9.14
2022-10-10T00:44:18.075Z,9.17
2022-10-10T00:49:28.263Z,9.10
2022-10-10T00:54:37.011Z,9.01
2022-10-10T00:59:46.219Z,9.07
2022-10-10T01:04:50.961Z,9.14
2022-10-10T01:10:03.137Z,9.09
2022-10-10T01:15:15.298Z,8.98
2022-10-10T01:20:51.836Z,8.91
2022-10-10T01:26:12.455Z,8.93
2022-10-10T01:31:22.817Z,8.85
2022-10-10T01:36:35.770Z,8.79
2022-10-10T01:41:48.431Z,8.80
2022-10-10T01:46:55.924Z,8.79
2022-10-10T01:52:14.382Z,8.80
2022-10-10T01:57:25.744Z,8.79
2022-10-10T02:02:45.067Z,8.86
2022-10-10T02:07:56.565Z,8.81
2022-10-10T02:13:05.543Z,8.72
2022-10-10T02:18:15.023Z,8.71
2022-10-10T02:23:22.853Z,8.70
2022-10-10T02:28:32.699Z,8.68
2022-10-10T02:33:47.431Z,8.65
2022-10-10T02:38:53.998Z,8.51
2022-10-10T02:43:59.579Z,8.55
2022-10-10T02:49:10.959Z,8.56
2022-10-10T02:54:15.665Z,8.48
2022-10-10T02:59:20.777Z,8.52
2022-10-10T03:04:29.140Z,8.61
2022-10-10T03:09:34.167Z,8.54
2022-10-10T03:14:39.395Z,8.64
2022-10-10T03:19:46.847Z,8.57
2022-10-10T03:24:51.812Z,8.62
2022-10-10T03:29:56.631Z,8.55
2022-10-10T03:35:03.952Z,8.51
2022-10-10T03:40:09.730Z,8.44
2022-10-10T03:45:14.620Z,8.48
2022-10-10T03:50:22.287Z,8.40
2022-10-10T03:55:27.737Z,8.41
2022-10-10T04:00:32.446Z,8.42
2022-10-10T04:05:44.363Z,8.46
2022-10-10T04:10:53.513Z,8.46
2022-10-10T04:15:59.820Z,8.48
2022-10-10T04:21:09.753Z,8.51
2022-10-10T04:26:14.641Z,8.58
2022-10-10T04:31:20.264Z,8.58
2022-10-10T04:36:27.921Z,8.57
2022-10-10T04:41:33.005Z,8.68
2022-10-10T04:46:38.066Z,8.71
2022-10-10T04:51:45.563Z,8.73
2022-10-10T04:56:51.098Z,8.73
2022-10-10T05:02:00.664Z,8.94
2022-10-10T05:07:12.065Z,9.01
2022-10-10T05:12:16.883Z,8.99
2022-10-10T05:17:22.428Z,9.15
2022-10-10T05:22:30.159Z,9.10
2022-10-10T05:27:35.463Z,9.48
2022-10-10T05:32:40.908Z,9.29
2022-10-10T05:37:51.023Z,9.32
2022-10-10T05:42:58.479Z,9.41
2022-10-10T05:48:04.685Z,9.35
2022-10-10T05:53:12.403Z,9.30
2022-10-10T05:58:17.409Z,9.32
2022-10-10T06:03:30.090Z,9.34
2022-10-10T06:08:37.727Z,9.53
2022-10-10T06:13:42.534Z,9.53
2022-10-10T06:18:47.511Z,9.56
2022-10-10T06:23:55.287Z,9.75
2022-10-10T06:29:00.133Z,9.95
2022-10-10T06:34:07.944Z,10.07
2022-10-10T06:39:17.095Z,10.32
2022-10-10T06:44:22.112Z,10.49
2022-10-10T06:49:28.636Z,11.51
2022-10-10T06:54:36.474Z,11.72
2022-10-10T06:59:41.314Z,11.26
2022-10-10T07:04:46.438Z,11.29
2022-10-10T07:09:55.212Z,11.71
2022-10-10T07:15:00.600Z,11.40
2022-10-10T07:20:05.901Z,11.40
2022-10-10T07:25:14.779Z,11.30
2022-10-10T07:30:20.054Z,11.28
2022-10-10T07:35:26.062Z,11.18
2022-10-10T07:40:34.013Z,11.26
2022-10-10T07:45:38.863Z,11.46
2022-10-10T07:50:44.536Z,11.39
2022-10-10T07:55:52.105Z,11.64
2022-10-10T08:01:05.041Z,11.66
2022-10-10T08:06:12.004Z,11.74
2022-10-10T08:11:22.253Z,11.78
2022-10-10T08:16:27.424Z,11.74
2022-10-10T08:21:32.760Z,11.82
2022-10-10T08:26:40.304Z,12.07
2022-10-10T08:31:45.237Z,12.19
2022-10-10T08:36:50.116Z,12.54
2022-10-10T08:42:00.622Z,12.45
2022-10-10T08:47:08.944Z,12.73
2022-10-10T08:52:22.773Z,12.58
2022-10-10T08:57:34.997Z,13.20
2022-10-10T09:02:53.785Z,13.27
2022-10-10T09:08:26.613Z,13.98
2022-10-10T09:13:39.814Z,13.97
2022-10-10T09:18:59.675Z,13.82
2022-10-10T09:24:09.045Z,14.16
2022-10-10T09:29:30.541Z,14.41
2022-10-10T09:34:42.094Z,14.41
2022-10-10T09:39:51.096Z,14.39
2022-10-10T09:44:59.740Z,14.53
2022-10-10T09:50:05.010Z,14.69
2022-10-10T09:55:24.737Z,14.93
2022-10-10T10:00:42.007Z,15.60
2022-10-10T10:05:49.517Z,16.32
2022-10-10T10:11:15.008Z,16.33
2022-10-10T10:16:48.119Z,16.24
2022-10-10T10:21:57.094Z,16.06
2022-10-10T10:27:12.671Z,15.90
2022-10-10T10:32:32.212Z,15.95
2022-10-10T10:37:46.443Z,15.37
2022-10-10T10:43:26.355Z,15.17
2022-10-10T10:48:42.380Z,15.61
2022-10-10T10:53:55.871Z,15.50
2022-10-10T10:59:38.589Z,15.90
2022-10-10T11:05:22.282Z,15.50
2022-10-10T11:10:38.114Z,15.78
2022-10-10T11:16:05.351Z,16.09
2022-10-10T11:21:21.619Z,15.92
2022-10-10T11:26:29.913Z,16.08
2022-10-10T11:31:43.012Z,16.64
2022-10-10T11:36:51.743Z,16.81
2022-10-10T11:42:00.801Z,16.49
2022-10-10T11:47:13.338Z,17.10
2022-10-10T11:52:34.182Z,16.89
2022-10-10T11:57:44.321Z,17.14
2022-10-10T12:02:50.652Z,16.79
2022-10-10T12:08:18.168Z,16.86
2022-10-10T12:13:34.287Z,17.46
2022-10-10T12:18:46.435Z,17.52
2022-10-10T12:24:04.573Z,17.06
2022-10-10T12:29:13.621Z,16.77
2022-10-10T12:34:46.778Z,16.76
2022-10-10T12:40:25.799Z,16.55
2022-10-10T12:45:59.374Z,16.98
2022-10-10T12:51:05.539Z,16.82
2022-10-10T12:56:16.950Z,17.17
2022-10-10T13:01:28.890Z,17.11
2022-10-10T13:06:39.625Z,16.70
2022-10-10T13:11:59.285Z,16.90
2022-10-10T13:17:04.695Z,16.37
2022-10-10T13:22:11.842Z,16.29
2022-10-10T13:27:24.367Z,16.39
2022-10-10T13:32:32.661Z,16.57
2022-10-10T13:37:38.393Z,16.63
2022-10-10T13:42:49.968Z,16.61
2022-10-10T13:47:56.576Z,16.49
2022-10-10T13:53:27.091Z,16.36
2022-10-10T13:58:40.570Z,16.46
2022-10-10T14:03:49.741Z,16.36
2022-10-10T14:08:59.284Z,16.60
2022-10-10T14:14:11.105Z,16.58
2022-10-10T14:19:21.181Z,16.63
2022-10-10T14:24:26.553Z,16.68
2022-10-10T14:29:34.259Z,16.48
2022-10-10T14:34:39.416Z,16.23
2022-10-10T14:39:44.315Z,16.09
2022-10-10T14:44:52.021Z,15.93
2022-10-10T14:49:58.104Z,15.92
2022-10-10T14:55:03.222Z,15.89
2022-10-10T15:00:16.505Z,15.93
2022-10-10T15:05:21.487Z,15.89
2022-10-10T15:10:34.621Z,15.72
2022-10-10T15:15:42.912Z,15.71
2022-10-10T15:20:47.726Z,15.73
2022-10-10T15:25:52.655Z,15.54
2022-10-10T15:31:00.456Z,15.56
2022-10-10T15:36:10.067Z,15.56
2022-10-10T15:41:17.190Z,15.56
2022-10-10T15:46:26.608Z,15.57
2022-10-10T15:51:32.002Z,15.43
2022-10-10T15:56:37.543Z,15.17
2022-10-10T16:01:45.255Z,15.24
2022-10-10T16:06:54.616Z,15.01
2022-10-10T16:12:11.580Z,14.94
2022-10-10T16:17:23.098Z,14.71
2022-10-10T16:22:28.413Z,14.70
2022-10-10T16:27:33.649Z,14.55
2022-10-10T16:32:42.799Z,14.51
2022-10-10T16:37:47.913Z,14.24
2022-10-10T16:42:52.677Z,14.29
2022-10-10T16:48:00.420Z,14.39
2022-10-10T16:53:05.232Z,14.35
2022-10-10T16:58:10.403Z,14.42
2022-10-10T17:03:17.790Z,14.42
2022-10-10T17:08:22.616Z,14.41
2022-10-10T17:13:28.318Z,14.23
2022-10-10T17:18:36.349Z,14.25
2022-10-10T17:23:41.248Z,14.20
2022-10-10T17:28:47.056Z,14.10
2022-10-10T17:33:55.046Z,14.06
2022-10-10T17:39:00.455Z,14.00
2022-10-10T17:44:06.083Z,13.91
2022-10-10T17:49:15.005Z,13.79
2022-10-10T17:54:19.999Z,13.74
2022-10-10T17:59:25.080Z,13.60
2022-10-10T18:04:32.788Z,13.60
2022-10-10T18:09:37.696Z,13.45
2022-10-10T18:14:42.414Z,13.30
2022-10-10T18:19:49.870Z,13.19
2022-10-10T18:24:54.768Z,12.98
2022-10-10T18:30:01.994Z,12.89
2022-10-10T18:35:10.630Z,12.72
2022-10-10T18:40:20.035Z,12.82
2022-10-10T18:45:25.030Z,12.73
2022-10-10T18:50:32.650Z,12.70
2022-10-10T18:55:38.047Z,12.44
2022-10-10T19:00:43.196Z,12.42
2022-10-10T19:05:50.908Z,12.37
2022-10-10T19:10:55.778Z,12.14
2022-10-10T19:16:06.769Z,12.04
2022-10-10T19:21:15.356Z,12.03
2022-10-10T19:26:21.371Z,12.03
2022-10-10T19:31:27.038Z,11.72
2022-10-10T19:36:37.190Z,11.65
2022-10-10T19:41:44.900Z,11.47
2022-10-10T19:46:50.239Z,11.43
2022-10-10T19:51:58.334Z,11.50
2022-10-10T19:57:04.443Z,11.33
2022-10-10T20:02:10.184Z,11.19
2022-10-10T20:07:17.659Z,11.08
2022-10-10T20:12:22.783Z,11.05
2022-10-10T20:17:27.782Z,11.07
2022-10-10T20:22:35.865Z,11.14
2022-10-10T20:27:40.616Z,11.01
2022-10-10T20:32:46.352Z,11.07
2022-10-10T20:37:54.207Z,10.85
2022-10-10T20:42:59.093Z,10.79
2022-10-10T20:48:04.206Z,10.96
2022-10-10T20:53:11.621Z,11.01
2022-10-10T20:58:16.391Z,10.75
2022-10-10T21:03:21.264Z,10.55
2022-10-10T21:08:28.737Z,10.44
2022-10-10T21:13:34.463Z,10.47
2022-10-10T21:18:39.824Z,10.47
2022-10-10T21:23:51.699Z,10.28
2022-10-10T21:29:00.969Z,10.30
2022-10-10T21:34:07.615Z,10.51
2022-10-10T21:39:15.945Z,10.32
2022-10-10T21:44:20.862Z,10.02
2022-10-10T21:49:25.792Z,9.96
2022-10-10T21:54:36.625Z,9.78
2022-10-10T21:59:41.531Z,9.85
2022-10-10T22:04:46.644Z,9.94
2022-10-10T22:09:54.030Z,9.67
2022-10-10T22:14:59.088Z,9.63
2022-10-10T22:20:04.518Z,9.58
2022-10-10T22:25:14.823Z,9.61
2022-10-10T22:30:19.802Z,9.81
2022-10-10T22:35:25.476Z,9.95
2022-10-10T22:40:34.307Z,9.83
2022-10-10T22:45:39.163Z,9.81
2022-10-10T22:50:43.898Z,9.76
2022-10-10T22:55:51.576Z,10.12
2022-10-10T23:00:57.511Z,9.73
2022-10-10T23:06:02.780Z,10.46
2022-10-10T23:11:10.769Z,11.12
2022-10-10T23:16:16.185Z,10.85
2022-10-10T23:21:21.532Z,11.46
2022-10-10T23:26:29.282Z,11.45
2022-10-10T23:31:34.493Z,11.73
2022-10-10T23:36:39.494Z,11.90
2022-10-10T23:41:46.905Z,11.95
2022-10-10T23:46:51.995Z,12.11
2022-10-10T23:51:56.746Z,12.07
2022-10-10T23:57:04.299Z,12.09
